createdAt,value
2022-09-27T00:01:01.284Z,17.00
2022-09-27T00:03:29.291Z,17.00
2022-09-27T00:06:13.310Z,17.00
2022-09-27T00:08:50.796Z,17.00
2022-09-27T00:11:39.402Z,17.10
2022-09-27T00:17:05.851Z,17.00
2022-09-27T00:20:03.841Z,17.00
2022-09-27T00:22:31.249Z,17.00
2022-09-27T00:25:29.624Z,17.00
2022-09-27T00:28:29.092Z,17.00
2022-09-27T00:31:21.139Z,17.00
2022-09-27T00:36:33.995Z,17.00
2022-09-27T00:45:17.990Z,17.00
2022-09-27T00:47:47.739Z,16.90
2022-09-27T00:50:29.730Z,17.00
2022-09-27T00:53:02.710Z,17.00
2022-09-27T00:55:34.850Z,17.00
2022-09-27T00:58:05.073Z,17.00
2022-09-27T01:00:32.614Z,17.00
2022-09-27T01:05:35.615Z,17.00
2022-09-27T01:08:04.014Z,17.10
2022-09-27T01:13:20.471Z,16.90
2022-09-27T01:16:01.738Z,16.90
2022-09-27T01:21:35.663Z,16.90
2022-09-27T01:24:28.528Z,16.80
2022-09-27T01:27:23.002Z,16.80
2022-09-27T01:30:22.210Z,16.70
2022-09-27T01:32:52.441Z,16.70
2022-09-27T01:41:40.773Z,16.80
2022-09-27T01:44:11.611Z,16.90
2022-09-27T01:46:46.286Z,16.90
2022-09-27T01:49:20.026Z,16.40
2022-09-27T01:54:48.975Z,16.80
2022-09-27T01:57:22.351Z,16.80
2022-09-27T02:00:03.701Z,16.80
2022-09-27T02:09:12.385Z,16.70
2022-09-27T02:11:45.243Z,16.80
2022-09-27T02:17:22.372Z,16.80
2022-09-27T02:20:21.630Z,16.70
2022-09-27T02:22:54.697Z,16.70
2022-09-27T02:25:30.690Z,16.70
2022-09-27T02:28:12.888Z,16.70
2022-09-27T02:30:40.243Z,16.60
2022-09-27T02:33:07.214Z,16.70
2022-09-27T02:35:35.913Z,16.70
2022-09-27T02:38:06.159Z,16.70
2022-09-27T02:43:33.399Z,16.70
2022-09-27T02:54:30.669Z,16.70
2022-09-27T02:57:12.707Z,16.70
2022-09-27T02:59:54.697Z,16.60
2022-09-27T03:02:28.165Z,16.60
2022-09-27T03:05:01.345Z,16.60
2022-09-27T03:07:28.716Z,16.60
2022-09-27T03:09:55.582Z,16.60
2022-09-27T03:12:26.071Z,16.60
2022-09-27T03:14:58.653Z,16.60
2022-09-27T03:17:33.361Z,16.50
2022-09-27T03:23:43.810Z,16.50
2022-09-27T03:29:54.768Z,16.60
2022-09-27T03:35:04.139Z,16.60
2022-09-27T03:37:30.900Z,16.60
2022-09-27T03:39:57.713Z,16.50
2022-09-27T03:42:24.485Z,16.50
2022-09-27T03:44:51.651Z,16.40
2022-09-27T03:47:18.420Z,16.40
2022-09-27T03:49:45.171Z,16.40
2022-09-27T03:52:11.874Z,16.40
2022-09-27T03:54:39.069Z,16.40
2022-09-27T03:57:05.810Z,16.40
2022-09-27T03:59:32.783Z,16.40
2022-09-27T04:07:49.382Z,16.40
2022-09-27T04:10:17.030Z,16.40
2022-09-27T04:15:34.718Z,16.40
2022-09-27T04:18:01.561Z,16.40
2022-09-27T04:20:28.445Z,16.30
2022-09-27T04:23:10.027Z,16.30
2022-09-27T04:25:36.826Z,16.20
2022-09-27T04:28:06.182Z,16.30
2022-09-27T04:30:33.001Z,16.30
2022-09-27T04:33:10.427Z,16.30
2022-09-27T04:35:55.846Z,16.20
2022-09-27T04:38:24.094Z,16.20
2022-09-27T04:40:51.767Z,16.30
2022-09-27T04:46:07.530Z,16.30
2022-09-27T04:48:34.906Z,16.50
2022-09-27T04:51:02.892Z,16.50
2022-09-27T04:53:30.321Z,16.40
2022-09-27T04:55:57.531Z,16.30
2022-09-27T04:59:00.854Z,16.30
2022-09-27T05:01:35.526Z,16.30
2022-09-27T05:04:02.470Z,16.30
2022-09-27T05:06:36.910Z,16.30
2022-09-27T05:09:03.784Z,16.30
2022-09-27T05:11:30.561Z,16.30
2022-09-27T05:16:34.259Z,16.20
2022-09-27T05:19:00.996Z,16.40
2022-09-27T05:21:27.782Z,16.50
2022-09-27T05:23:54.989Z,16.60
2022-09-27T05:26:21.790Z,16.70
2022-09-27T05:28:48.545Z,16.80
2022-09-27T05:31:16.306Z,16.80
2022-09-27T05:33:43.122Z,16.90
2022-09-27T05:36:09.865Z,16.90
2022-09-27T05:39:09.264Z,17.00
2022-09-27T05:41:36.652Z,17.00
2022-09-27T05:50:39.063Z,17.10
2022-09-27T05:55:54.505Z,17.10
2022-09-27T05:58:28.566Z,17.10
2022-09-27T06:04:08.402Z,17.10
2022-09-27T06:06:38.943Z,17.10
2022-09-27T06:09:11.879Z,17.20
2022-09-27T06:11:59.148Z,17.20
2022-09-27T06:14:27.768Z,17.30
2022-09-27T06:16:55.094Z,17.30
2022-09-27T06:19:22.483Z,17.40
2022-09-27T06:24:37.978Z,17.60
2022-09-27T06:27:04.704Z,17.60
2022-09-27T06:29:38.724Z,17.70
2022-09-27T06:32:16.415Z,17.70
2022-09-27T06:34:43.209Z,17.80
2022-09-27T06:39:52.226Z,18.10
2022-09-27T06:45:24.940Z,18.30
2022-09-27T06:50:57.544Z,19.00
2022-09-27T06:53:26.004Z,19.20
2022-09-27T06:56:01.199Z,19.30
2022-09-27T06:58:46.787Z,19.20
2022-09-27T07:01:14.534Z,19.00
2022-09-27T07:06:33.081Z,18.70
2022-09-27T07:12:16.490Z,18.50
2022-09-27T07:14:43.236Z,18.30
2022-09-27T07:17:16.906Z,18.30
2022-09-27T07:19:43.719Z,18.30
2022-09-27T07:22:10.454Z,18.20
2022-09-27T07:24:37.196Z,18.20
2022-09-27T07:27:03.984Z,18.20
2022-09-27T07:29:55.482Z,18.20
2022-09-27T07:32:22.185Z,18.20
2022-09-27T07:35:39.935Z,18.10
2022-09-27T07:43:44.857Z,18.70
2022-09-27T07:46:13.606Z,19.00
2022-09-27T07:51:15.812Z,19.40
2022-09-27T07:53:42.556Z,19.50
2022-09-27T07:56:29.535Z,19.70
2022-09-27T07:59:28.750Z,20.00
2022-09-27T08:02:07.621Z,20.00
2022-09-27T08:04:34.445Z,20.10
2022-09-27T08:07:10.280Z,20.30
2022-09-27T08:09:39.152Z,20.40
2022-09-27T08:12:06.022Z,20.60
2022-09-27T08:17:32.792Z,20.90
2022-09-27T08:22:43.648Z,21.20
2022-09-27T08:25:10.598Z,21.30
2022-09-27T08:27:37.469Z,21.30
2022-09-27T08:30:11.783Z,21.00
2022-09-27T08:38:32.058Z,18.80
2022-09-27T08:41:29.806Z,20.00
2022-09-27T09:02:44.158Z,20.40
2022-09-27T09:08:24.787Z,20.60
2022-09-27T09:11:15.381Z,20.80
2022-09-27T09:14:00.505Z,21.00
2022-09-27T09:16:48.245Z,20.70
2022-09-27T09:19:32.994Z,20.70
2022-09-27T09:22:22.637Z,20.60
2022-09-27T09:25:07.880Z,20.80
2022-09-27T09:28:12.511Z,20.90
2022-09-27T09:30:52.967Z,21.20
2022-09-27T09:33:23.010Z,21.30
2022-09-27T09:36:19.627Z,21.30
2022-09-27T09:38:54.519Z,21.30
2022-09-27T09:45:00.857Z,21.20
2022-09-27T09:48:01.939Z,21.40
2022-09-27T09:54:04.998Z,21.90
2022-09-27T09:56:36.331Z,22.20
2022-09-27T09:59:17.353Z,22.40
2022-09-27T10:02:00.422Z,22.50
2022-09-27T10:04:28.340Z,22.70
2022-09-27T10:10:21.057Z,22.80
2022-09-27T10:12:48.989Z,23.00
2022-09-27T10:18:31.075Z,23.70
2022-09-27T10:21:04.144Z,23.90
2022-09-27T10:23:31.370Z,23.40
2022-09-27T10:29:14.459Z,23.00
2022-09-27T10:31:46.081Z,23.20
2022-09-27T10:39:58.754Z,25.10
2022-09-27T10:42:33.742Z,26.90
2022-09-27T10:45:20.831Z,28.00
2022-09-27T10:47:50.735Z,26.80
2022-09-27T11:06:23.542Z,26.90
2022-09-27T11:08:52.145Z,32.70
2022-09-27T11:11:24.335Z,32.40
2022-09-27T11:14:00.166Z,32.70
2022-09-27T11:16:34.862Z,32.60
2022-09-27T11:19:04.766Z,33.20
2022-09-27T11:21:40.769Z,33.40
2022-09-27T11:24:47.264Z,33.60
2022-09-27T11:27:35.160Z,33.20
2022-09-27T11:30:06.253Z,33.20
2022-09-27T11:32:50.968Z,33.40
2022-09-27T11:35:36.675Z,33.30
2022-09-27T11:38:52.076Z,34.20
2022-09-27T11:41:30.295Z,34.20
2022-09-27T11:44:35.099Z,34.10
2022-09-27T11:47:26.604Z,33.90
2022-09-27T11:50:05.902Z,35.10
2022-09-27T11:52:46.577Z,35.10
2022-09-27T11:55:31.863Z,36.00
2022-09-27T11:58:19.201Z,35.80
2022-09-27T12:01:35.059Z,35.70
2022-09-27T12:04:20.962Z,35.20
2022-09-27T12:07:03.280Z,35.30
2022-09-27T12:09:36.261Z,34.80
2022-09-27T12:12:16.321Z,35.20
2022-09-27T12:14:49.760Z,35.80
2022-09-27T12:17:33.572Z,36.90
2022-09-27T12:20:06.497Z,38.30
2022-09-27T12:22:59.672Z,38.20
2022-09-27T12:25:31.643Z,37.60
2022-09-27T12:28:12.211Z,37.50
2022-09-27T12:30:43.911Z,37.30
2022-09-27T12:33:34.106Z,37.20
2022-09-27T12:36:07.481Z,37.40
2022-09-27T12:38:48.461Z,38.00
2022-09-27T12:41:20.914Z,37.80
2022-09-27T12:43:50.412Z,38.00
2022-09-27T12:46:30.276Z,37.30
2022-09-27T12:49:21.739Z,38.10
2022-09-27T12:51:57.674Z,38.90
2022-09-27T12:54:55.640Z,38.10
2022-09-27T12:58:02.548Z,35.90
2022-09-27T13:00:47.025Z,34.30
2022-09-27T13:03:36.258Z,34.30
2022-09-27T13:06:29.390Z,34.70
2022-09-27T13:09:28.202Z,34.50
2022-09-27T13:12:27.968Z,32.70
2022-09-27T13:14:58.719Z,29.90
2022-09-27T13:17:46.787Z,28.80
2022-09-27T13:20:31.830Z,27.50
2022-09-27T13:22:59.763Z,26.10
2022-09-27T13:25:55.855Z,25.00
2022-09-27T13:37:27.795Z,23.40
2022-09-27T13:43:55.756Z,23.30
2022-09-27T13:46:26.931Z,23.40
2022-09-27T13:49:15.915Z,23.60
2022-09-27T13:51:55.003Z,23.50
2022-09-27T13:54:34.500Z,23.50
2022-09-27T14:10:17.082Z,22.60
2022-09-27T14:12:44.817Z,30.20
2022-09-27T14:15:28.290Z,31.70
2022-09-27T14:17:56.823Z,32.40
2022-09-27T14:20:42.033Z,33.50
2022-09-27T14:23:23.953Z,33.60
2022-09-27T14:25:53.255Z,34.30
2022-09-27T14:28:21.432Z,34.80
2022-09-27T14:30:48.258Z,33.80
2022-09-27T14:33:33.693Z,33.90
2022-09-27T14:36:23.697Z,33.40
2022-09-27T14:38:50.889Z,33.50
2022-09-27T14:41:17.749Z,33.10
2022-09-27T14:43:50.455Z,32.50
2022-09-27T14:46:29.840Z,32.00
2022-09-27T14:48:56.922Z,31.80
2022-09-27T14:51:30.584Z,31.40
2022-09-27T14:54:01.466Z,32.00
2022-09-27T14:56:40.017Z,32.10
2022-09-27T14:59:37.798Z,31.80
2022-09-27T15:02:15.161Z,31.50
2022-09-27T15:04:49.718Z,30.60
2022-09-27T15:07:17.128Z,30.20
2022-09-27T15:09:45.459Z,29.70
2022-09-27T15:12:24.447Z,30.00
2022-09-27T15:14:54.321Z,30.90
2022-09-27T15:17:22.729Z,31.10
2022-09-27T15:20:18.770Z,30.90
2022-09-27T15:22:45.741Z,31.20
2022-09-27T15:25:20.491Z,31.70
2022-09-27T15:27:55.183Z,32.00
2022-09-27T15:30:30.109Z,31.80
2022-09-27T15:32:57.635Z,30.40
2022-09-27T15:35:28.986Z,30.10
2022-09-27T15:38:25.126Z,29.10
2022-09-27T15:40:52.043Z,27.70
2022-09-27T15:43:36.021Z,27.10
2022-09-27T15:46:25.606Z,27.50
2022-09-27T15:49:17.725Z,28.00
2022-09-27T15:51:46.940Z,27.30
2022-09-27T15:54:13.905Z,26.70
2022-09-27T15:56:40.778Z,25.90
2022-09-27T15:59:26.754Z,25.10
2022-09-27T16:02:07.836Z,24.40
2022-09-27T16:04:35.140Z,23.80
2022-09-27T16:07:04.367Z,23.40
2022-09-27T16:09:32.079Z,23.00
2022-09-27T16:11:58.826Z,23.70
2022-09-27T16:14:25.826Z,22.30
2022-09-27T16:16:58.976Z,22.10
2022-09-27T16:19:25.807Z,21.80
2022-09-27T16:21:52.826Z,21.60
2022-09-27T16:24:19.612Z,21.40
2022-09-27T16:26:46.909Z,21.20
2022-09-27T16:29:15.652Z,21.10
2022-09-27T16:31:43.022Z,21.10
2022-09-27T16:34:10.957Z,21.00
2022-09-27T16:36:38.935Z,20.80
2022-09-27T16:39:13.003Z,20.70
2022-09-27T16:41:41.349Z,20.70
2022-09-27T16:44:09.582Z,20.50
2022-09-27T16:46:39.223Z,20.50
2022-09-27T16:49:26.038Z,20.40
2022-09-27T16:52:01.661Z,20.40
2022-09-27T16:54:31.904Z,20.40
2022-09-27T16:56:59.530Z,20.40
2022-09-27T16:59:27.490Z,20.30
2022-09-27T17:01:58.160Z,20.40
2022-09-27T17:04:27.713Z,20.40
2022-09-27T17:06:56.085Z,20.40
2022-09-27T17:09:25.959Z,20.40
2022-09-27T17:11:53.155Z,20.40
2022-09-27T17:14:20.584Z,20.30
2022-09-27T17:16:48.374Z,20.20
2022-09-27T17:19:18.662Z,20.20
2022-09-27T17:21:46.039Z,20.20
2022-09-27T17:24:13.178Z,20.30
2022-09-27T17:26:40.661Z,20.30
2022-09-27T17:29:08.325Z,20.30
2022-09-27T17:31:38.334Z,20.30
2022-09-27T17:34:05.269Z,20.30
2022-09-27T17:36:34.598Z,20.20
2022-09-27T17:39:03.258Z,20.10
2022-09-27T17:41:30.625Z,20.00
2022-09-27T17:44:01.565Z,20.00
2022-09-27T17:46:30.978Z,19.90
2022-09-27T17:49:16.902Z,19.90
2022-09-27T17:51:48.069Z,19.90
2022-09-27T17:54:16.784Z,19.80
2022-09-27T17:56:44.420Z,19.60
2022-09-27T17:59:13.025Z,19.50
2022-09-27T18:01:40.037Z,19.40
2022-09-27T18:04:09.732Z,19.20
2022-09-27T18:06:44.551Z,19.10
2022-09-27T18:09:13.555Z,19.00
2022-09-27T18:11:40.942Z,18.90
2022-09-27T18:14:08.550Z,18.80
2022-09-27T18:16:39.552Z,18.70
2022-09-27T18:19:08.142Z,18.70
2022-09-27T18:21:35.059Z,18.50
2022-09-27T18:24:06.389Z,18.50
2022-09-27T18:26:40.194Z,18.50
2022-09-27T18:29:10.876Z,18.40
2022-09-27T18:31:39.528Z,18.30
2022-09-27T18:34:09.885Z,18.20
2022-09-27T18:36:37.630Z,18.20
2022-09-27T18:39:06.068Z,18.10
2022-09-27T18:41:34.757Z,18.10
2022-09-27T18:44:03.800Z,18.00
2022-09-27T18:46:36.308Z,18.00
2022-09-27T18:49:05.630Z,18.00
2022-09-27T18:51:33.592Z,18.00
2022-09-27T18:54:01.856Z,17.90
2022-09-27T18:56:30.145Z,17.60
2022-09-27T18:58:57.489Z,17.60
2022-09-27T19:01:36.746Z,17.80
2022-09-27T19:04:03.894Z,16.20
2022-09-27T19:06:30.760Z,17.60
2022-09-27T19:09:00.997Z,17.80
2022-09-27T19:11:28.407Z,17.90
2022-09-27T19:13:57.858Z,17.60
2022-09-27T19:16:26.285Z,17.70
2022-09-27T19:18:53.768Z,17.70
2022-09-27T19:21:30.624Z,17.70
2022-09-27T19:23:58.148Z,17.70
2022-09-27T19:26:26.998Z,17.80
2022-09-27T19:28:54.353Z,17.80
2022-09-27T19:31:27.336Z,17.80
2022-09-27T19:33:59.746Z,17.60
2022-09-27T19:36:27.692Z,17.80
2022-09-27T19:38:59.097Z,17.70
2022-09-27T19:41:26.718Z,17.60
2022-09-27T19:43:54.851Z,17.60
2022-09-27T19:46:23.751Z,17.70
2022-09-27T19:49:00.109Z,17.70
2022-09-27T19:51:28.100Z,16.50
2022-09-27T19:53:55.351Z,17.60
2022-09-27T19:58:57.879Z,17.50
2022-09-27T20:04:00.048Z,17.50
2022-09-27T20:06:29.425Z,17.50
2022-09-27T20:08:56.266Z,17.50
2022-09-27T20:14:19.003Z,17.40
2022-09-27T20:22:23.029Z,17.30
2022-09-27T20:27:44.960Z,17.30
2022-09-27T20:30:12.142Z,15.80
2022-09-27T20:35:38.312Z,17.20
2022-09-27T20:38:07.110Z,17.20
2022-09-27T20:40:34.463Z,17.20
2022-09-27T20:45:36.694Z,17.20
2022-09-27T20:48:03.659Z,17.20
2022-09-27T20:50:33.676Z,17.20
2022-09-27T20:53:06.579Z,17.20
2022-09-27T20:58:08.706Z,17.10
2022-09-27T21:08:44.181Z,17.10
2022-09-27T21:11:25.669Z,17.00
2022-09-27T21:17:47.018Z,17.00
2022-09-27T21:20:19.302Z,17.00
2022-09-27T21:22:49.300Z,17.00
2022-09-27T21:25:16.161Z,16.90
2022-09-27T21:27:46.446Z,16.80
2022-09-27T21:35:39.478Z,16.90
2022-09-27T21:45:08.663Z,16.80
2022-09-27T21:47:35.576Z,16.10
2022-09-27T21:50:02.453Z,16.60
2022-09-27T21:52:29.500Z,16.60
2022-09-27T21:57:42.794Z,16.70
2022-09-27T22:03:22.248Z,16.60
2022-09-27T22:05:51.620Z,16.50
2022-09-27T22:08:21.422Z,15.50
2022-09-27T22:11:12.856Z,16.30
2022-09-27T22:13:41.998Z,15.90
2022-09-27T22:16:11.781Z,16.40
2022-09-27T22:18:39.728Z,16.40
2022-09-27T22:21:08.954Z,16.40
2022-09-27T22:23:36.165Z,16.40
2022-09-27T22:26:17.757Z,16.30
2022-09-27T22:28:45.881Z,16.30
2022-09-27T22:33:49.985Z,16.20
2022-09-27T22:36:17.107Z,16.20
2022-09-27T22:44:14.638Z,16.30
2022-09-27T22:46:42.634Z,16.30
2022-09-27T22:49:09.665Z,16.10
2022-09-27T22:51:36.494Z,16.10
2022-09-27T22:54:03.446Z,16.10
2022-09-27T22:56:30.794Z,16.00
2022-09-27T22:59:01.380Z,16.00
2022-09-27T23:04:14.814Z,16.00
2022-09-27T23:06:42.786Z,16.00
2022-09-27T23:09:10.201Z,16.00
2022-09-27T23:11:39.854Z,16.00
2022-09-27T23:14:08.215Z,16.10
2022-09-27T23:16:36.321Z,16.00
2022-09-27T23:19:03.912Z,15.90
2022-09-27T23:21:32.112Z,15.90
2022-09-27T23:23:59.827Z,15.90
2022-09-27T23:26:28.077Z,15.90
2022-09-27T23:29:00.682Z,15.90
2022-09-27T23:31:32.145Z,15.90
2022-09-27T23:34:05.419Z,15.80
2022-09-27T23:36:32.293Z,15.90
2022-09-27T23:39:00.893Z,15.90
2022-09-27T23:41:31.002Z,15.90
2022-09-27T23:44:07.291Z,15.90
2022-09-27T23:46:34.529Z,15.20
2022-09-27T23:49:02.072Z,14.00
2022-09-27T23:51:30.133Z,14.00
2022-09-27T23:54:01.063Z,15.00
2022-09-27T23:56:29.704Z,14.20
2022-09-27T23:59:01.160Z,16.70
